Time;durP1;ratioP1;P1;durP2;ratioP2;P2;SDS_P1;SDS_P2;PMS_P1;PMS_P2;Temp;Humidity;BMP_temperature;BMP_pressure;BME280_temperature;BME280_humidity;BME280_pressure;Samples;Min_cycle;Max_cycle;Signal;HPM_P1;HPM_P2
2023/05/22 00:00:51;;;;;;;27.80;18.92;;;17.40;99.90;;;;;;5044081;28;20094;-66
2023/05/22 00:03:18;;;;;;;30.50;20.73;;;17.40;99.90;;;;;;5043220;28;20102;-66
2023/05/22 00:05:44;;;;;;;26.05;20.65;;;17.30;99.90;;;;;;5060390;28;20043;-66
2023/05/22 00:08:10;;;;;;;28.77;20.67;;;17.30;99.90;;;;;;5042928;28;20052;-64
2023/05/22 00:10:39;;;;;;;31.88;23.40;;;17.20;99.90;;;;;;5027399;28;20075;-67
2023/05/22 00:13:05;;;;;;;29.50;23.58;;;17.10;99.90;;;;;;5042464;28;20410;-66
2023/05/22 00:15:32;;;;;;;31.65;22.92;;;17.10;99.90;;;;;;5044198;28;20403;-65
2023/05/22 00:17:58;;;;;;;30.27;23.25;;;17.10;99.90;;;;;;5042758;28;20087;-66
2023/05/22 00:20:25;;;;;;;29.92;22.02;;;17.10;99.90;;;;;;5060636;28;20118;-66
2023/05/22 00:22:52;;;;;;;31.73;23.35;;;17.10;99.90;;;;;;5059199;28;20048;-66
2023/05/22 00:25:18;;;;;;;33.97;24.50;;;17.10;99.90;;;;;;5043632;28;20400;-64
2023/05/22 00:27:46;;;;;;;31.83;23.13;;;17.10;99.90;;;;;;5028044;28;20389;-67
2023/05/22 00:30:12;;;;;;;32.78;23.70;;;17.10;99.90;;;;;;5045170;28;20080;-66
2023/05/22 00:32:38;;;;;;;33.03;23.67;;;17.00;99.90;;;;;;5063378;28;20504;-66
2023/05/22 00:35:05;;;;;;;33.97;25.45;;;17.10;99.90;;;;;;5055797;28;20123;-66
2023/05/22 00:37:31;;;;;;;31.70;23.60;;;17.00;99.90;;;;;;5044137;28;20059;-68
2023/05/22 00:39:56;;;;;;;31.98;23.90;;;17.00;99.90;;;;;;5043462;28;20123;-66
2023/05/22 00:42:22;;;;;;;32.08;24.90;;;17.00;99.90;;;;;;5043730;28;20049;-66
2023/05/22 00:44:48;;;;;;;30.38;23.95;;;16.90;99.90;;;;;;5048897;28;20037;-67
2023/05/22 00:47:14;;;;;;;31.50;25.77;;;16.90;99.90;;;;;;5046834;28;20183;-65
2023/05/22 00:49:41;;;;;;;30.17;24.20;;;16.90;99.90;;;;;;5050959;28;20086;-67
2023/05/22 00:52:08;;;;;;;32.20;25.73;;;16.90;99.90;;;;;;5049867;28;20094;-67
2023/05/22 00:54:35;;;;;;;33.13;23.92;;;16.90;99.90;;;;;;5066915;28;20071;-66
2023/05/22 00:57:02;;;;;;;31.67;24.67;;;16.90;99.90;;;;;;5067456;28;20077;-65
2023/05/22 00:59:29;;;;;;;31.02;26.55;;;16.90;99.90;;;;;;5034481;28;20092;-65
2023/05/22 01:01:56;;;;;;;37.53;26.13;;;16.90;99.90;;;;;;5046313;28;20098;-66
2023/05/22 01:04:22;;;;;;;30.05;25.50;;;16.90;99.90;;;;;;5030542;28;20132;-67
2023/05/22 01:06:48;;;;;;;35.33;27.33;;;17.00;99.90;;;;;;5063470;28;20049;-65
2023/05/22 01:09:14;;;;;;;32.42;25.02;;;17.00;99.90;;;;;;5030153;28;20392;-66
2023/05/22 01:12:04;;;;;;;37.83;25.92;;;17.00;99.90;;;;;;5046216;28;20043;-67
2023/05/22 01:14:42;;;;;;;34.25;26.30;;;17.00;99.90;;;;;;5047207;28;20098;-66
2023/05/22 01:17:51;;;;;;;35.35;26.35;;;16.90;99.90;;;;;;5047659;28;20448;-66
2023/05/22 01:20:23;;;;;;;33.20;25.83;;;16.90;99.90;;;;;;5030629;28;20052;-66
2023/05/22 01:23:01;;;;;;;32.22;25.23;;;16.80;99.90;;;;;;5045569;28;20037;-67
2023/05/22 01:25:51;;;;;;;33.42;25.25;;;16.80;99.90;;;;;;5062776;28;20033;-66
2023/05/22 01:28:39;;;;;;;32.92;24.70;;;16.80;99.90;;;;;;5043762;28;20504;-66
2023/05/22 01:31:10;;;;;;;34.08;25.33;;;16.80;99.90;;;;;;5030769;28;20386;-67
2023/05/22 01:33:53;;;;;;;31.98;25.60;;;16.80;99.90;;;;;;5047981;28;20044;-66
2023/05/22 01:36:23;;;;;;;36.10;26.40;;;16.80;99.90;;;;;;5063140;28;20115;-67
2023/05/22 01:38:50;;;;;;;36.20;27.02;;;16.80;99.90;;;;;;5065620;28;20048;-66
2023/05/22 01:41:17;;;;;;;33.55;26.77;;;16.80;99.90;;;;;;5045047;28;20040;-66
2023/05/22 01:43:44;;;;;;;38.92;27.90;;;16.80;99.90;;;;;;5045762;28;20044;-66
2023/05/22 01:46:10;;;;;;;34.60;27.38;;;16.80;99.90;;;;;;5046109;28;20131;-66
2023/05/22 01:48:36;;;;;;;33.92;26.67;;;16.80;99.90;;;;;;5062839;28;20128;-66
2023/05/22 01:51:26;;;;;;;33.38;27.02;;;16.70;99.90;;;;;;5046323;28;20040;-66
2023/05/22 01:54:09;;;;;;;36.70;27.75;;;16.80;99.90;;;;;;5045061;28;20053;-66
2023/05/22 01:57:04;;;;;;;38.25;29.42;;;16.80;99.90;;;;;;5045150;28;20041;-66
2023/05/22 02:00:04;;;;;;;37.05;27.92;;;16.80;99.90;;;;;;5045870;28;20057;-67
2023/05/22 02:02:32;;;;;;;34.42;27.65;;;16.70;99.90;;;;;;5045470;28;20440;-67
2023/05/22 02:04:59;;;;;;;40.47;30.83;;;16.70;99.90;;;;;;5045916;28;20064;-67
2023/05/22 02:07:27;;;;;;;39.55;30.45;;;16.80;99.90;;;;;;5045353;28;20081;-66
2023/05/22 02:09:55;;;;;;;42.72;30.13;;;16.80;99.90;;;;;;5045468;28;20137;-67
2023/05/22 02:12:23;;;;;;;37.28;29.92;;;16.80;99.90;;;;;;5044506;28;20037;-67
2023/05/22 02:14:49;;;;;;;36.53;29.08;;;16.70;99.90;;;;;;5046294;28;20069;-67
2023/05/22 02:17:16;;;;;;;42.15;30.15;;;16.70;99.90;;;;;;5045270;28;20400;-67
2023/05/22 02:19:43;;;;;;;43.20;30.70;;;16.70;99.90;;;;;;5046186;28;20040;-67
2023/05/22 02:22:12;;;;;;;37.10;28.63;;;16.70;99.90;;;;;;5045745;28;20048;-66
2023/05/22 02:24:41;;;;;;;37.63;28.33;;;16.80;99.90;;;;;;5046606;28;20119;-66
2023/05/22 02:27:08;;;;;;;34.58;28.08;;;16.70;99.90;;;;;;5074121;28;20607;-66
2023/05/22 02:29:34;;;;;;;40.42;27.85;;;16.70;99.90;;;;;;5049032;28;20151;-67
2023/05/22 02:32:00;;;;;;;35.75;27.95;;;16.70;99.90;;;;;;5029286;28;20123;-67
2023/05/22 02:34:25;;;;;;;38.42;27.90;;;16.70;99.90;;;;;;5045432;28;20044;-67
2023/05/22 02:36:52;;;;;;;40.95;29.20;;;16.70;99.90;;;;;;5061875;28;20060;-67
2023/05/22 02:39:18;;;;;;;38.65;28.90;;;16.70;99.90;;;;;;5046629;28;20136;-67
2023/05/22 02:41:44;;;;;;;39.00;28.65;;;16.70;99.90;;;;;;5045719;28;20683;-67
2023/05/22 02:44:10;;;;;;;38.15;28.92;;;16.70;99.90;;;;;;5044820;28;20048;-67
2023/05/22 02:46:35;;;;;;;35.90;28.20;;;16.70;99.90;;;;;;5046153;28;20049;-67
2023/05/22 02:49:01;;;;;;;43.45;30.35;;;16.70;99.90;;;;;;5045302;28;20049;-67
2023/05/22 02:51:27;;;;;;;36.20;29.23;;;16.70;99.90;;;;;;5044956;28;20072;-68
2023/05/22 02:53:53;;;;;;;37.50;30.77;;;16.70;99.90;;;;;;5044509;28;20086;-68
2023/05/22 02:56:20;;;;;;;38.80;30.58;;;16.70;99.90;;;;;;5059502;28;20041;-68
2023/05/22 02:58:47;;;;;;;38.35;29.95;;;16.70;99.90;;;;;;5061211;28;20476;-67
2023/05/22 03:01:12;;;;;;;38.30;29.38;;;16.70;99.90;;;;;;5061292;28;20067;-68
2023/05/22 03:03:38;;;;;;;41.03;30.38;;;16.70;99.90;;;;;;5053569;28;20032;-68
2023/05/22 03:06:05;;;;;;;40.63;30.60;;;16.80;99.90;;;;;;5044134;28;20037;-66
2023/05/22 03:08:31;;;;;;;39.50;30.02;;;16.70;99.90;;;;;;5060322;28;20044;-65
2023/05/22 03:10:58;;;;;;;40.30;30.23;;;16.70;99.90;;;;;;5061108;28;20037;-67
2023/05/22 03:13:24;;;;;;;39.10;30.52;;;16.70;99.90;;;;;;5043705;28;20044;-66
2023/05/22 03:15:50;;;;;;;38.30;29.45;;;16.70;99.90;;;;;;5061614;28;20147;-66
2023/05/22 03:18:16;;;;;;;40.08;30.17;;;16.70;99.90;;;;;;5044345;28;20083;-66
2023/05/22 03:20:42;;;;;;;40.45;28.92;;;16.60;99.90;;;;;;5046307;28;20083;-67
2023/05/22 03:23:10;;;;;;;37.85;29.30;;;16.60;99.90;;;;;;5043376;28;20083;-66
2023/05/22 03:25:36;;;;;;;32.55;28.17;;;16.60;99.90;;;;;;5045721;28;20068;-67
2023/05/22 03:28:02;;;;;;;34.92;26.83;;;16.60;99.90;;;;;;5063394;28;20076;-67
2023/05/22 03:30:28;;;;;;;37.30;27.05;;;16.60;99.90;;;;;;5081628;28;20083;-67
2023/05/22 03:32:53;;;;;;;34.70;27.52;;;16.60;99.90;;;;;;5046652;28;20037;-68
2023/05/22 03:35:19;;;;;;;39.10;28.50;;;16.60;99.90;;;;;;5044662;28;20041;-68
2023/05/22 03:37:45;;;;;;;38.53;28.45;;;16.60;99.90;;;;;;5043649;28;20130;-68
2023/05/22 03:40:11;;;;;;;34.92;27.70;;;16.60;99.90;;;;;;5044885;28;20690;-67
2023/05/22 03:42:37;;;;;;;42.90;29.98;;;16.60;99.90;;;;;;5026534;28;20476;-66
2023/05/22 03:45:03;;;;;;;43.60;29.70;;;16.60;99.90;;;;;;5044215;28;20045;-67
2023/05/22 03:47:29;;;;;;;36.45;29.30;;;16.50;99.90;;;;;;5043567;28;20041;-66
2023/05/22 03:49:55;;;;;;;37.95;30.02;;;16.50;99.90;;;;;;5045707;28;20048;-65
2023/05/22 03:52:21;;;;;;;37.65;30.05;;;16.50;99.90;;;;;;5043409;28;20827;-66
2023/05/22 03:54:47;;;;;;;35.95;30.38;;;16.50;99.90;;;;;;5043975;28;20139;-66
2023/05/22 03:57:13;;;;;;;39.53;30.70;;;16.50;99.90;;;;;;5026667;28;20505;-67
2023/05/22 03:59:39;;;;;;;38.28;31.27;;;16.50;99.90;;;;;;5044257;28;20407;-68
2023/05/22 04:02:05;;;;;;;40.67;31.92;;;16.40;99.90;;;;;;5044489;28;20041;-67
2023/05/22 04:04:32;;;;;;;44.33;33.10;;;16.40;99.90;;;;;;5062176;28;20408;-67
2023/05/22 04:06:58;;;;;;;42.45;32.47;;;16.40;99.90;;;;;;5046812;28;20045;-66
2023/05/22 04:09:31;;;;;;;41.45;33.20;;;16.30;99.90;;;;;;5046749;28;20044;-68
2023/05/22 04:11:57;;;;;;;43.88;33.05;;;16.30;99.90;;;;;;5045051;28;20070;-65
2023/05/22 04:14:23;;;;;;;44.85;32.97;;;16.30;99.90;;;;;;5044063;28;20420;-63
2023/05/22 04:16:48;;;;;;;47.25;32.90;;;16.30;99.90;;;;;;5063031;28;20079;-67
2023/05/22 04:19:15;;;;;;;45.65;32.47;;;16.30;99.90;;;;;;5046752;28;20040;-67
2023/05/22 04:21:42;;;;;;;41.15;33.72;;;16.30;99.90;;;;;;5043733;28;20044;-67
2023/05/22 04:24:09;;;;;;;41.08;31.63;;;16.20;99.90;;;;;;5043758;28;20407;-68
2023/05/22 04:26:36;;;;;;;45.90;34.53;;;16.30;99.90;;;;;;5051332;28;20079;-68
2023/05/22 04:29:02;;;;;;;46.30;33.78;;;16.30;99.90;;;;;;5062659;28;20041;-68
2023/05/22 04:31:28;;;;;;;42.17;33.05;;;16.30;99.90;;;;;;5044700;28;20048;-68
2023/05/22 04:33:54;;;;;;;44.95;34.47;;;16.30;99.90;;;;;;5044165;28;20573;-68
2023/05/22 04:36:25;;;;;;;45.33;34.40;;;16.30;99.90;;;;;;5027517;28;20040;-68
2023/05/22 04:38:52;;;;;;;43.00;34.03;;;16.30;99.90;;;;;;5042821;28;20624;-69
2023/05/22 04:41:21;;;;;;;44.15;34.05;;;16.30;99.90;;;;;;5042399;28;20088;-69
2023/05/22 04:43:47;;;;;;;45.58;33.83;;;16.30;99.90;;;;;;5060152;28;20049;-69
2023/05/22 04:46:16;;;;;;;38.92;32.13;;;16.30;99.90;;;;;;5060147;28;20242;-68
2023/05/22 04:48:41;;;;;;;48.63;33.55;;;16.20;99.90;;;;;;5043376;28;20053;-66
2023/05/22 04:51:08;;;;;;;46.22;34.30;;;16.20;99.90;;;;;;5044788;28;20059;-68
2023/05/22 04:53:34;;;;;;;43.83;33.78;;;16.20;99.90;;;;;;5042761;28;20045;-67
2023/05/22 04:56:00;;;;;;;48.85;35.55;;;16.20;99.90;;;;;;5044548;28;20049;-69
2023/05/22 04:58:26;;;;;;;49.10;34.80;;;16.20;99.90;;;;;;5042822;28;20056;-69
2023/05/22 05:00:56;;;;;;;44.10;33.47;;;16.10;99.90;;;;;;5043243;28;20049;-68
2023/05/22 05:03:24;;;;;;;45.28;33.92;;;16.10;99.90;;;;;;5043197;28;20817;-69
2023/05/22 05:05:50;;;;;;;44.97;32.55;;;16.10;99.90;;;;;;5029456;28;20052;-68
2023/05/22 05:08:16;;;;;;;45.03;33.38;;;16.10;99.90;;;;;;5078665;28;20048;-68
2023/05/22 05:10:42;;;;;;;47.17;33.40;;;16.10;99.90;;;;;;5056171;28;20086;-69
2023/05/22 05:13:08;;;;;;;47.08;33.10;;;16.00;99.90;;;;;;5042350;28;20083;-68
2023/05/22 05:15:33;;;;;;;45.20;33.10;;;16.00;99.90;;;;;;5043858;28;20048;-67
2023/05/22 05:17:59;;;;;;;46.83;33.60;;;16.00;99.90;;;;;;5025955;28;20045;-68
2023/05/22 05:20:26;;;;;;;46.95;32.78;;;16.00;99.90;;;;;;5057352;28;20664;-68
2023/05/22 05:22:52;;;;;;;45.42;31.65;;;16.00;99.90;;;;;;5078726;28;20044;-66
2023/05/22 05:25:18;;;;;;;43.70;32.35;;;16.00;99.90;;;;;;5057691;28;20030;-66
2023/05/22 05:27:43;;;;;;;44.97;31.23;;;16.00;99.90;;;;;;5058700;28;20064;-68
2023/05/22 05:30:09;;;;;;;41.53;29.85;;;16.00;99.90;;;;;;5044212;28;20401;-63
2023/05/22 05:32:35;;;;;;;39.53;28.35;;;16.00;99.90;;;;;;5062509;28;20041;-64
2023/05/22 05:35:01;;;;;;;38.97;27.15;;;16.10;99.90;;;;;;5065844;28;20067;-67
2023/05/22 05:37:27;;;;;;;35.95;27.00;;;16.10;99.90;;;;;;5067353;28;20028;-68
2023/05/22 05:39:52;;;;;;;36.95;26.83;;;16.10;99.90;;;;;;5065648;28;20106;-65
2023/05/22 05:42:18;;;;;;;34.38;25.70;;;16.10;99.90;;;;;;5045660;28;20158;-68
2023/05/22 05:44:44;;;;;;;34.70;25.00;;;16.10;99.90;;;;;;5046445;28;20041;-66
2023/05/22 05:47:10;;;;;;;39.75;26.73;;;16.10;99.90;;;;;;5046116;28;20077;-63
2023/05/22 05:49:35;;;;;;;37.63;25.52;;;16.20;99.90;;;;;;5046656;28;20044;-62
2023/05/22 05:52:01;;;;;;;35.45;24.17;;;16.20;99.90;;;;;;5046885;28;20040;-67
2023/05/22 05:54:27;;;;;;;36.53;24.85;;;16.20;99.90;;;;;;5048447;28;20032;-64
2023/05/22 05:56:53;;;;;;;38.33;24.70;;;16.20;99.90;;;;;;5064021;28;20050;-64
2023/05/22 05:59:19;;;;;;;34.15;24.35;;;16.20;99.90;;;;;;5062887;28;20048;-63
2023/05/22 06:01:46;;;;;;;38.63;24.95;;;16.20;99.90;;;;;;5065609;28;20047;-66
2023/05/22 06:04:12;;;;;;;35.10;24.27;;;16.20;99.90;;;;;;5065722;28;20489;-64
2023/05/22 06:06:38;;;;;;;32.88;23.17;;;16.30;99.90;;;;;;5048190;28;20044;-63
2023/05/22 06:09:05;;;;;;;34.47;23.63;;;16.30;99.90;;;;;;5045607;28;20560;-65
2023/05/22 06:11:31;;;;;;;28.70;23.23;;;16.30;99.90;;;;;;5046103;28;20128;-66
2023/05/22 06:14:01;;;;;;;34.78;24.45;;;16.30;99.90;;;;;;5029071;28;20051;-65
2023/05/22 06:16:27;;;;;;;32.90;23.42;;;16.30;99.90;;;;;;5058633;28;20036;-66
2023/05/22 06:18:55;;;;;;;30.60;21.70;;;16.30;99.90;;;;;;5066917;28;20446;-64
2023/05/22 06:21:21;;;;;;;30.75;21.77;;;16.30;99.90;;;;;;5064112;28;20040;-64
2023/05/22 06:23:48;;;;;;;32.88;21.67;;;16.30;99.90;;;;;;5048011;28;20513;-63
2023/05/22 06:26:15;;;;;;;31.33;21.65;;;16.40;99.90;;;;;;5061731;28;20431;-66
2023/05/22 06:28:41;;;;;;;29.10;20.10;;;16.40;99.90;;;;;;5048668;28;20044;-65
2023/05/22 06:31:08;;;;;;;30.65;20.02;;;16.30;99.90;;;;;;5047903;28;20040;-68
2023/05/22 06:33:35;;;;;;;28.27;20.83;;;16.30;99.90;;;;;;5048836;28;20504;-64
2023/05/22 06:36:02;;;;;;;29.13;19.83;;;16.30;99.90;;;;;;5065588;28;20546;-64
2023/05/22 06:38:28;;;;;;;26.95;20.45;;;16.30;99.90;;;;;;5047865;28;20052;-63
2023/05/22 06:40:54;;;;;;;29.17;19.42;;;16.40;99.90;;;;;;5052084;28;20048;-67
2023/05/22 06:43:19;;;;;;;26.38;19.42;;;16.40;99.90;;;;;;5064127;28;20036;-63
2023/05/22 06:45:45;;;;;;;28.60;19.20;;;16.40;99.90;;;;;;5065134;28;20039;-67
2023/05/22 06:48:11;;;;;;;31.10;19.02;;;16.40;99.90;;;;;;5047927;28;20058;-63
2023/05/22 06:50:37;;;;;;;30.42;19.27;;;16.40;99.90;;;;;;5064496;28;20139;-63
2023/05/22 06:53:02;;;;;;;28.33;19.27;;;16.40;99.90;;;;;;5063898;28;20046;-67
2023/05/22 06:55:28;;;;;;;28.35;18.33;;;16.50;99.90;;;;;;5061105;28;20549;-65
2023/05/22 06:57:54;;;;;;;24.88;17.50;;;16.40;99.90;;;;;;5044101;28;20106;-64
2023/05/22 07:00:20;;;;;;;29.27;19.13;;;16.50;99.90;;;;;;5037020;28;20423;-65
2023/05/22 07:02:45;;;;;;;27.92;18.10;;;16.50;99.90;;;;;;5064001;28;20534;-64
2023/05/22 07:05:11;;;;;;;25.70;17.55;;;16.40;99.90;;;;;;5046576;28;20072;-66
2023/05/22 07:07:37;;;;;;;31.33;17.52;;;16.50;99.90;;;;;;5046546;28;20120;-63
2023/05/22 07:10:03;;;;;;;29.10;17.20;;;16.50;99.90;;;;;;5061891;28;20086;-64
2023/05/22 07:12:28;;;;;;;28.10;17.48;;;16.40;99.90;;;;;;5062266;28;20110;-66
2023/05/22 07:14:55;;;;;;;31.48;16.58;;;16.40;99.90;;;;;;5047307;28;20052;-64
2023/05/22 07:17:21;;;;;;;31.08;15.93;;;16.40;99.90;;;;;;5064260;28;20044;-64
2023/05/22 07:19:47;;;;;;;30.63;17.70;;;16.40;99.90;;;;;;5044384;28;20051;-66
2023/05/22 07:22:13;;;;;;;28.75;15.65;;;16.30;99.90;;;;;;5043898;28;20055;-66
2023/05/22 07:24:39;;;;;;;33.17;15.85;;;16.30;99.90;;;;;;5061286;28;20153;-66
2023/05/22 07:27:05;;;;;;;30.05;15.25;;;16.30;99.90;;;;;;5044822;28;20118;-66
2023/05/22 07:29:31;;;;;;;27.52;14.98;;;16.30;99.90;;;;;;5052360;28;20043;-65
2023/05/22 07:31:56;;;;;;;29.20;14.05;;;16.30;99.90;;;;;;5061655;28;20067;-65
2023/05/22 07:34:22;;;;;;;29.42;14.23;;;16.20;99.90;;;;;;5062964;28;20078;-67
2023/05/22 07:36:48;;;;;;;29.45;13.55;;;16.20;99.90;;;;;;5064193;28;20036;-64
2023/05/22 07:39:14;;;;;;;27.77;13.43;;;16.20;99.90;;;;;;5063242;28;20040;-64
2023/05/22 07:41:40;;;;;;;33.88;12.90;;;16.10;99.90;;;;;;5062061;28;20072;-64
2023/05/22 07:44:06;;;;;;;32.13;12.80;;;16.10;99.90;;;;;;5060058;28;20072;-63
2023/05/22 07:46:34;;;;;;;38.38;13.10;;;16.00;99.90;;;;;;5045168;28;20116;-63
2023/05/22 07:48:59;;;;;;;34.15;12.68;;;15.90;99.90;;;;;;5042769;28;20044;-64
2023/05/22 07:51:25;;;;;;;29.15;11.73;;;15.90;99.90;;;;;;5056657;28;20045;-64
2023/05/22 07:53:52;;;;;;;41.08;12.75;;;15.90;99.90;;;;;;5046064;28;20050;-64
2023/05/22 07:56:17;;;;;;;32.35;12.07;;;15.80;99.90;;;;;;5059549;28;20587;-66
2023/05/22 07:58:46;;;;;;;30.20;11.93;;;15.80;99.90;;;;;;5060475;28;20057;-62
2023/05/22 08:01:14;;;;;;;34.67;12.18;;;15.80;99.90;;;;;;5043840;28;20061;-65
2023/05/22 08:03:40;;;;;;;31.95;12.63;;;15.80;99.90;;;;;;5045355;28;20045;-67
2023/05/22 08:06:06;;;;;;;37.17;12.55;;;15.70;99.90;;;;;;5061466;28;20067;-67
2023/05/22 08:08:32;;;;;;;37.10;13.20;;;15.70;99.90;;;;;;5027069;28;20060;-65
2023/05/22 08:10:58;;;;;;;36.58;14.27;;;15.70;99.90;;;;;;5043666;28;20047;-64
2023/05/22 08:13:24;;;;;;;30.05;12.60;;;15.70;99.90;;;;;;5045361;28;20029;-67
2023/05/22 08:15:50;;;;;;;35.50;13.57;;;15.80;99.90;;;;;;5044138;28;20083;-65
2023/05/22 08:18:16;;;;;;;42.30;14.07;;;15.70;99.90;;;;;;5027356;28;20087;-65
2023/05/22 08:20:42;;;;;;;30.92;13.93;;;15.70;99.90;;;;;;5044219;28;20076;-66
2023/05/22 08:23:07;;;;;;;33.15;13.23;;;15.70;99.90;;;;;;5044395;28;20060;-63
2023/05/22 08:25:33;;;;;;;32.50;13.05;;;15.70;99.90;;;;;;5043618;28;20037;-66
2023/05/22 08:27:59;;;;;;;30.80;14.07;;;15.70;99.90;;;;;;5043534;28;20045;-65
2023/05/22 08:30:25;;;;;;;30.52;13.35;;;15.70;99.90;;;;;;5044085;28;20041;-63
2023/05/22 08:32:50;;;;;;;36.53;14.27;;;15.70;99.90;;;;;;5043703;28;20048;-63
2023/05/22 08:35:16;;;;;;;32.55;13.88;;;15.70;99.90;;;;;;5043365;28;20403;-64
2023/05/22 08:37:42;;;;;;;31.67;14.00;;;15.70;99.90;;;;;;5059933;28;20072;-65
2023/05/22 08:40:11;;;;;;;32.75;15.55;;;15.70;99.90;;;;;;5030672;28;20486;-64
2023/05/22 08:42:37;;;;;;;37.67;15.63;;;15.70;99.90;;;;;;5043842;28;20052;-64
2023/05/22 08:45:04;;;;;;;33.63;15.05;;;15.70;99.90;;;;;;5043990;28;20094;-65
2023/05/22 08:47:33;;;;;;;37.47;14.88;;;15.70;99.90;;;;;;5027053;28;20120;-65
2023/05/22 08:49:59;;;;;;;37.55;15.00;;;15.70;99.90;;;;;;5027769;28;20048;-66
2023/05/22 08:52:42;;;;;;;35.30;15.73;;;15.70;99.90;;;;;;5026865;28;20037;-67
2023/05/22 08:55:09;;;;;;;37.10;15.60;;;15.80;99.90;;;;;;5027988;28;20052;-66
2023/05/22 08:57:35;;;;;;;40.17;15.73;;;15.80;99.90;;;;;;5060696;28;20106;-68
2023/05/22 09:00:01;;;;;;;31.40;14.55;;;15.80;99.90;;;;;;5064068;28;20131;-64
2023/05/22 09:02:27;;;;;;;33.30;14.48;;;15.90;99.90;;;;;;5062928;28;20044;-67
2023/05/22 09:04:53;;;;;;;37.88;14.88;;;15.90;99.90;;;;;;5045069;28;20515;-63
2023/05/22 09:07:20;;;;;;;35.85;14.80;;;16.00;99.90;;;;;;5067325;28;20059;-67
2023/05/22 09:09:46;;;;;;;38.35;14.95;;;16.00;99.90;;;;;;5067800;28;20090;-67
2023/05/22 09:12:12;;;;;;;40.33;15.68;;;16.00;99.90;;;;;;5046460;28;20051;-66
2023/05/22 09:14:42;;;;;;;37.95;15.30;;;16.00;99.90;;;;;;5047676;28;20049;-63
2023/05/22 09:17:10;;;;;;;33.75;14.93;;;16.00;99.90;;;;;;5063882;28;20040;-66
2023/05/22 09:19:36;;;;;;;36.63;15.70;;;16.00;99.90;;;;;;5050577;28;20111;-68
2023/05/22 09:22:05;;;;;;;37.63;16.40;;;16.00;99.90;;;;;;5066600;28;20040;-67
2023/05/22 09:24:38;;;;;;;31.50;16.35;;;16.00;99.90;;;;;;5065625;28;20119;-66
2023/05/22 09:27:05;;;;;;;36.78;14.60;;;16.00;99.90;;;;;;5062197;28;20044;-66
2023/05/22 09:29:47;;;;;;;44.25;16.95;;;16.00;99.90;;;;;;5068467;28;20037;-64
2023/05/22 09:32:14;;;;;;;36.67;15.95;;;16.00;99.90;;;;;;5045113;28;20102;-65
2023/05/22 09:34:39;;;;;;;34.30;15.73;;;16.00;99.90;;;;;;5063964;28;20041;-65
2023/05/22 09:37:05;;;;;;;29.52;15.93;;;16.00;99.90;;;;;;5047884;28;20429;-70
2023/05/22 09:39:44;;;;;;;36.55;16.27;;;16.10;99.90;;;;;;5050491;28;20052;-69
2023/05/22 09:42:13;;;;;;;31.23;16.55;;;16.10;99.90;;;;;;5064084;28;20078;-68
2023/05/22 09:44:41;;;;;;;28.52;15.93;;;16.20;99.90;;;;;;5045996;28;20036;-64
2023/05/22 09:47:10;;;;;;;33.97;16.55;;;16.30;99.90;;;;;;5048246;28;20123;-64
2023/05/22 09:49:43;;;;;;;33.42;17.05;;;16.40;99.90;;;;;;5066154;28;20502;-68
2023/05/22 09:52:13;;;;;;;31.70;16.25;;;16.50;99.90;;;;;;5065574;28;20127;-66
2023/05/22 09:54:52;;;;;;;32.00;16.02;;;16.60;99.90;;;;;;5049322;28;20047;-65
2023/05/22 09:57:19;;;;;;;30.85;16.38;;;16.60;99.90;;;;;;5046697;28;20461;-66
2023/05/22 09:59:53;;;;;;;37.83;16.67;;;16.80;99.90;;;;;;5048942;28;20051;-61
2023/05/22 10:02:22;;;;;;;31.95;16.42;;;16.90;99.90;;;;;;5067241;28;20044;-64
2023/05/22 10:04:49;;;;;;;36.30;16.40;;;17.00;99.90;;;;;;5062826;28;20075;-64
2023/05/22 10:07:29;;;;;;;29.25;15.65;;;17.10;99.90;;;;;;5047291;28;20116;-64
2023/05/22 10:10:07;;;;;;;32.30;16.10;;;17.20;99.90;;;;;;5046258;28;20037;-65
2023/05/22 10:12:40;;;;;;;29.02;15.38;;;17.30;99.90;;;;;;5066512;28;20044;-68
2023/05/22 10:15:08;;;;;;;29.10;16.17;;;17.30;99.90;;;;;;5049710;28;20050;-62
2023/05/22 10:17:35;;;;;;;31.85;16.42;;;17.30;99.90;;;;;;5064930;28;20040;-66
2023/05/22 10:20:02;;;;;;;30.25;16.65;;;17.30;99.90;;;;;;5047672;28;20586;-64
2023/05/22 10:22:30;;;;;;;32.78;15.68;;;17.50;99.90;;;;;;5065788;28;20101;-65
2023/05/22 10:24:57;;;;;;;32.42;16.17;;;17.60;99.90;;;;;;5063653;28;20442;-65
2023/05/22 10:27:23;;;;;;;30.15;15.95;;;17.70;99.90;;;;;;5060842;28;20076;-68
2023/05/22 10:30:08;;;;;;;31.10;16.02;;;17.70;99.90;;;;;;5066885;28;20491;-64
2023/05/22 10:32:41;;;;;;;30.60;15.60;;;17.80;99.90;;;;;;5064476;28;20048;-62
2023/05/22 10:35:20;;;;;;;28.20;16.70;;;17.80;99.90;;;;;;5044231;28;20079;-60
2023/05/22 10:38:23;;;;;;;28.23;16.60;;;17.90;99.90;;;;;;5044481;28;20132;-63
2023/05/22 10:40:49;;;;;;;28.48;15.98;;;17.90;99.90;;;;;;5045381;28;20044;-64
2023/05/22 10:43:15;;;;;;;33.63;16.08;;;18.00;99.90;;;;;;5045400;28;20547;-65
2023/05/22 10:45:45;;;;;;;30.35;15.85;;;18.10;99.90;;;;;;5062526;28;20037;-64
2023/05/22 10:48:11;;;;;;;27.35;15.68;;;18.20;99.90;;;;;;5045218;28;20068;-66
2023/05/22 10:50:38;;;;;;;24.20;16.45;;;18.20;99.90;;;;;;5051125;28;20509;-63
2023/05/22 10:53:23;;;;;;;26.88;15.65;;;18.20;99.90;;;;;;5045687;28;20051;-64
2023/05/22 10:55:53;;;;;;;28.00;15.48;;;18.30;99.90;;;;;;5031849;28;20095;-64
2023/05/22 10:58:30;;;;;;;29.80;16.30;;;18.40;99.90;;;;;;5044856;28;20053;-65
2023/05/22 11:01:16;;;;;;;27.75;16.13;;;18.50;99.90;;;;;;5046459;28;20053;-67
2023/05/22 11:03:52;;;;;;;26.90;16.15;;;18.50;99.90;;;;;;5045421;28;20074;-63
2023/05/22 11:06:36;;;;;;;23.95;16.60;;;18.60;99.90;;;;;;5044862;28;20045;-69
2023/05/22 11:09:20;;;;;;;;;;;18.70;99.90;;;;;;5045420;28;20052;-66
2023/05/22 11:12:07;;;;;;;29.73;15.82;;;18.70;99.90;;;;;;5044462;28;20288;-68
2023/05/22 11:14:35;;;;;;;25.80;16.35;;;18.80;99.90;;;;;;5047066;28;20080;-66
2023/05/22 11:17:01;;;;;;;24.30;14.43;;;18.90;99.90;;;;;;5044749;28;20088;-64
2023/05/22 11:19:26;;;;;;;24.60;15.30;;;18.90;99.90;;;;;;5045117;28;20131;-66
2023/05/22 11:21:59;;;;;;;23.67;14.73;;;18.90;99.90;;;;;;5045223;28;20043;-68
2023/05/22 11:24:25;;;;;;;23.92;15.57;;;19.00;99.90;;;;;;5044504;28;20120;-67
2023/05/22 11:27:03;;;;;;;25.45;17.50;;;19.10;99.90;;;;;;5044101;28;20689;-64
2023/05/22 11:29:33;;;;;;;27.67;19.15;;;19.30;99.90;;;;;;5028299;28;20103;-65
2023/05/22 11:32:00;;;;;;;27.08;18.55;;;19.50;99.90;;;;;;5055837;28;20039;-64
2023/05/22 11:34:26;;;;;;;30.98;20.80;;;19.60;99.90;;;;;;5062092;28;20037;-63
2023/05/22 11:37:00;;;;;;;30.02;20.33;;;19.80;99.90;;;;;;5045553;28;20570;-62
2023/05/22 11:39:26;;;;;;;31.63;20.80;;;19.80;99.90;;;;;;5064381;28;20491;-64
2023/05/22 11:41:52;;;;;;;24.25;19.63;;;19.90;99.90;;;;;;5046559;28;20054;-61
2023/05/22 11:44:17;;;;;;;26.75;19.30;;;19.90;99.90;;;;;;5047547;28;20032;-68
2023/05/22 11:46:44;;;;;;;27.88;20.85;;;20.00;99.90;;;;;;5062348;28;20064;-63
2023/05/22 11:49:13;;;;;;;27.75;20.65;;;20.20;99.90;;;;;;5065944;28;20067;-63
2023/05/22 11:51:39;;;;;;;28.17;21.30;;;20.30;99.90;;;;;;5063275;28;20668;-63
2023/05/22 11:54:06;;;;;;;28.23;20.42;;;20.40;99.90;;;;;;5048129;28;20478;-67
2023/05/22 11:56:32;;;;;;;26.50;21.70;;;20.40;99.90;;;;;;5067311;28;20140;-61
2023/05/22 11:58:57;;;;;;;29.08;21.15;;;20.60;99.90;;;;;;5046114;28;20128;-62
2023/05/22 12:01:23;;;;;;;26.88;21.45;;;20.70;99.90;;;;;;5055010;28;20049;-66
2023/05/22 12:03:49;;;;;;;26.42;21.85;;;20.80;99.90;;;;;;5065556;28;20151;-64
2023/05/22 12:06:16;;;;;;;33.75;21.92;;;20.80;99.90;;;;;;5048617;28;20037;-68
2023/05/22 12:08:42;;;;;;;28.75;21.77;;;20.90;99.90;;;;;;5057736;28;20047;-63
2023/05/22 12:11:10;;;;;;;28.10;21.30;;;21.10;99.90;;;;;;5067010;28;20060;-67
2023/05/22 12:13:36;;;;;;;25.60;21.80;;;21.20;99.90;;;;;;5061683;28;20067;-63
2023/05/22 12:16:23;;;;;;;25.95;20.75;;;21.20;99.90;;;;;;5062459;28;20072;-63
2023/05/22 12:18:53;;;;;;;28.25;22.33;;;21.30;99.90;;;;;;5044264;28;20064;-68
2023/05/22 12:21:21;;;;;;;29.83;21.48;;;21.40;99.90;;;;;;5054673;28;20036;-63
2023/05/22 12:23:49;;;;;;;26.25;21.08;;;21.40;99.90;;;;;;5063559;28;20044;-67
2023/05/22 12:26:15;;;;;;;26.85;22.05;;;21.50;99.90;;;;;;5059526;28;20043;-65
2023/05/22 12:28:42;;;;;;;26.27;20.63;;;21.40;99.90;;;;;;5064680;28;20056;-63
2023/05/22 12:31:07;;;;;;;27.60;21.35;;;21.50;99.90;;;;;;5049564;28;20037;-64
2023/05/22 12:33:33;;;;;;;26.90;21.55;;;21.50;99.90;;;;;;5044817;28;20237;-66